Edna T. Gattle — WDD2528 — position and weather

sailwx.info

Track history (hours):
 
Tides and Currents Weather Stations Pressure Air Temp Water Temp Dewpoint Dewpoint Depression Visibility Wind Speed Wind Dir Waves Ship Positions

Edna T. Gattle

Owner: Terral RiverService, Inc., Lake Providence, LA. More information available from US FCC via Universal Licensing System and Coast Guard Vessel Documentation Center.

Last reported at 2017-Oct-12 15:39 UTC. Time now 2017-Oct-19 17:54 UTC.
Position N 31°38' W 091°24'.

Length 33 m; draft 2.8 m.

Type: Towing. MMSI: 367116420.

Date/timePositionNaut miles runAvg speedWind from/ knotsBaromVisibWave heightAir tempDewpointWater temp
2017-Oct-12 15:39N 31°38' W 091°24'3 7.0
2017-Oct-12 15:17N 31°40' W 091°24'2 8.9
2017-Oct-12 15:00N 31°43' W 091°24'5 8.2
2017-Oct-12 14:26N 31°47' W 091°21'3 7.7
2017-Oct-12 14:00N 31°50' W 091°21'3 6.8
2017-Oct-12 13:30N 31°51' W 091°17'4 7.7
2017-Oct-12 13:00N 31°53' W 091°13'4 7.5
2017-Oct-12 12:30N 31°56' W 091°12'3 6.8
2017-Oct-12 12:00N 31°59' W 091°09'4 7.4
2017-Oct-12 11:30N 32°00' W 091°05'6 7.0
2017-Oct-12 10:40N 32°06' W 091°06'1 7.5
2017-Oct-12 10:29N 32°07' W 091°07'2 3.4
2017-Oct-12 10:00N 32°08' W 091°05'3 6.0
2017-Oct-12 09:30N 32°07' W 091°01'4 7.9
2017-Oct-12 09:00N 32°11' W 090°60'3 6.7
2017-Oct-12 08:30N 32°14' W 090°59'4 7.8
2017-Oct-12 08:00N 32°17' W 090°56'3 6.8
2017-Oct-12 07:30N 32°20' W 090°54'4 7.2
2017-Oct-12 07:00N 32°21' W 090°58'2 4.8
2017-Oct-12 06:30N 32°23' W 090°60'3 6.3
2017-Oct-12 06:00N 32°26' W 091°01'4 7.5
2017-Oct-12 05:30N 32°27' W 091°05'4 6.9
2017-Oct-12 04:56N 32°31' W 091°06'3 7.8
2017-Oct-12 04:30N 32°34' W 091°07'4 8.0
2017-Oct-12 04:00N 32°38' W 091°09'8 7.5
2017-Oct-12 02:59N 32°43' W 091°03'5 7.7
2017-Oct-12 02:22N 32°44' W 091°09'2 5.6
2017-Oct-12 02:00N 32°46' W 091°10'0 0.9
2017-Oct-12 01:30N 32°47' W 091°09'  
2017-Oct-08 09:24N 32°40' W 091°08'2 3.2
2017-Oct-08 08:41N 32°38' W 091°09'1 4.5
2017-Oct-08 08:30N 32°37' W 091°09'2 4.7
2017-Oct-08 08:00N 32°35' W 091°08'2 4.8
2017-Oct-08 07:30N 32°33' W 091°06'2 4.2
2017-Oct-08 07:00N 32°31' W 091°06'3 5.4
2017-Oct-08 06:30N 32°29' W 091°07'3 5.3
2017-Oct-08 06:00N 32°27' W 091°05'3 5.3
2017-Oct-08 05:30N 32°26' W 091°02'2 4.9
2017-Oct-08 05:00N 32°24' W 090°60'2 4.5
2017-Oct-08 04:30N 32°22' W 091°00'3 5.3
2017-Oct-08 04:00N 32°21' W 090°58'3 6.2
2017-Oct-08 03:30N 32°20' W 090°54'3 5.6
2017-Oct-08 03:00N 32°18' W 090°55'0 0.1
2017-Oct-08 02:30N 32°18' W 090°55'0 0.0
2017-Oct-08 02:00N 32°18' W 090°55'0 0.0
2017-Oct-08 01:30N 32°18' W 090°55'0 0.0
2017-Oct-08 01:00N 32°18' W 090°55'0 0.0
2017-Oct-08 00:30N 32°18' W 090°55'0 0.0
2017-Oct-08 00:00N 32°18' W 090°55'0 0.0
2017-Oct-07 23:30N 32°18' W 090°55'0 0.0
2017-Oct-07 23:00N 32°18' W 090°55'0 0.4
2017-Oct-07 22:30N 32°17' W 090°56'2 4.5
2017-Oct-07 22:00N 32°16' W 090°58'3 7.0
2017-Oct-07 21:30N 32°13' W 090°59'4 7.7
2017-Oct-07 21:00N 32°09' W 091°00'3 6.0
2017-Oct-07 20:30N 32°07' W 091°03'3 5.6
2017-Oct-07 20:00N 32°07' W 091°06'4 7.7
2017-Oct-07 19:27N 32°03' W 091°03'4 8.2
2017-Oct-07 19:00N 32°00' W 091°05'63 2.0
2017-Oct-06 12:07N 31°15' W 091°58'  
Track history (hours):
 
Tides and Currents Weather Stations Pressure Air Temp Water Temp Dewpoint Dewpoint Depression Visibility Wind Speed Wind Dir Waves Ship Positions

Edna T. Gattle

Owner: Terral RiverService, Inc., Lake Providence, LA. More information available from US FCC via Universal Licensing System and Coast Guard Vessel Documentation Center.

Last reported at 2017-Oct-12 15:39 UTC. Time now 2017-Oct-19 17:54 UTC.
Position N 31°38' W 091°24'.

Length 33 m; draft 2.8 m.

Type: Towing. MMSI: 367116420.

Date/timePositionNaut miles runAvg speedWind from/ knotsBaromVisibWave heightAir tempDewpointWater temp
2017-Oct-12 15:39N 31°38' W 091°24'3 7.0
2017-Oct-12 15:17N 31°40' W 091°24'2 8.9
2017-Oct-12 15:00N 31°43' W 091°24'5 8.2
2017-Oct-12 14:26N 31°47' W 091°21'3 7.7
2017-Oct-12 14:00N 31°50' W 091°21'3 6.8
2017-Oct-12 13:30N 31°51' W 091°17'4 7.7
2017-Oct-12 13:00N 31°53' W 091°13'4 7.5
2017-Oct-12 12:30N 31°56' W 091°12'3 6.8
2017-Oct-12 12:00N 31°59' W 091°09'4 7.4
2017-Oct-12 11:30N 32°00' W 091°05'6 7.0
2017-Oct-12 10:40N 32°06' W 091°06'1 7.5
2017-Oct-12 10:29N 32°07' W 091°07'2 3.4
2017-Oct-12 10:00N 32°08' W 091°05'3 6.0
2017-Oct-12 09:30N 32°07' W 091°01'4 7.9
2017-Oct-12 09:00N 32°11' W 090°60'3 6.7
2017-Oct-12 08:30N 32°14' W 090°59'4 7.8
2017-Oct-12 08:00N 32°17' W 090°56'3 6.8
2017-Oct-12 07:30N 32°20' W 090°54'4 7.2
2017-Oct-12 07:00N 32°21' W 090°58'2 4.8
2017-Oct-12 06:30N 32°23' W 090°60'3 6.3
2017-Oct-12 06:00N 32°26' W 091°01'4 7.5
2017-Oct-12 05:30N 32°27' W 091°05'4 6.9
2017-Oct-12 04:56N 32°31' W 091°06'3 7.8
2017-Oct-12 04:30N 32°34' W 091°07'4 8.0
2017-Oct-12 04:00N 32°38' W 091°09'8 7.5
2017-Oct-12 02:59N 32°43' W 091°03'5 7.7
2017-Oct-12 02:22N 32°44' W 091°09'2 5.6
2017-Oct-12 02:00N 32°46' W 091°10'0 0.9
2017-Oct-12 01:30N 32°47' W 091°09'  
2017-Oct-08 09:24N 32°40' W 091°08'2 3.2
2017-Oct-08 08:41N 32°38' W 091°09'1 4.5
2017-Oct-08 08:30N 32°37' W 091°09'2 4.7
2017-Oct-08 08:00N 32°35' W 091°08'2 4.8
2017-Oct-08 07:30N 32°33' W 091°06'2 4.2
2017-Oct-08 07:00N 32°31' W 091°06'3 5.4
2017-Oct-08 06:30N 32°29' W 091°07'3 5.3
2017-Oct-08 06:00N 32°27' W 091°05'3 5.3
2017-Oct-08 05:30N 32°26' W 091°02'2 4.9
2017-Oct-08 05:00N 32°24' W 090°60'2 4.5
2017-Oct-08 04:30N 32°22' W 091°00'3 5.3
2017-Oct-08 04:00N 32°21' W 090°58'3 6.2
2017-Oct-08 03:30N 32°20' W 090°54'3 5.6
2017-Oct-08 03:00N 32°18' W 090°55'0 0.1
2017-Oct-08 02:30N 32°18' W 090°55'0 0.0
2017-Oct-08 02:00N 32°18' W 090°55'0 0.0
2017-Oct-08 01:30N 32°18' W 090°55'0 0.0
2017-Oct-08 01:00N 32°18' W 090°55'0 0.0
2017-Oct-08 00:30N 32°18' W 090°55'0 0.0
2017-Oct-08 00:00N 32°18' W 090°55'0 0.0
2017-Oct-07 23:30N 32°18' W 090°55'0 0.0
2017-Oct-07 23:00N 32°18' W 090°55'0 0.4
2017-Oct-07 22:30N 32°17' W 090°56'2 4.5
2017-Oct-07 22:00N 32°16' W 090°58'3 7.0
2017-Oct-07 21:30N 32°13' W 090°59'4 7.7
2017-Oct-07 21:00N 32°09' W 091°00'3 6.0
2017-Oct-07 20:30N 32°07' W 091°03'3 5.6
2017-Oct-07 20:00N 32°07' W 091°06'4 7.7
2017-Oct-07 19:27N 32°03' W 091°03'4 8.2
2017-Oct-07 19:00N 32°00' W 091°05'63 2.0
2017-Oct-06 12:07N 31°15' W 091°58'  

Dump ship's entire track history